Time;durP1;ratioP1;P1;durP2;ratioP2;P2;SDS_P1;SDS_P2;PMS_P1;PMS_P2;Temp;Humidity;BMP_temperature;BMP_pressure;BME280_temperature;BME280_humidity;BME280_pressure;Samples;Min_cycle;Max_cycle;Signal;HPM_P1;HPM_P2
2023/09/14 00:00:56;;;;;;;3.75;1.75;;;17.00;85.40;;;;;;5036006;28;20021;-76
2023/09/14 00:03:22;;;;;;;2.95;1.77;;;17.00;85.50;;;;;;5053384;28;20030;-76
2023/09/14 00:05:49;;;;;;;6.60;1.92;;;16.90;85.60;;;;;;5052423;28;20101;-75
2023/09/14 00:08:15;;;;;;;3.65;1.80;;;17.00;85.60;;;;;;5052344;28;20030;-76
2023/09/14 00:10:41;;;;;;;5.20;1.80;;;16.90;85.60;;;;;;5052293;28;20064;-75
2023/09/14 00:13:08;;;;;;;3.35;1.95;;;16.90;85.90;;;;;;5035891;28;20029;-75
2023/09/14 00:15:34;;;;;;;5.57;2.10;;;16.80;86.00;;;;;;5051520;28;20139;-76
2023/09/14 00:18:00;;;;;;;4.72;1.98;;;16.80;86.10;;;;;;5052279;28;20018;-76
2023/09/14 00:20:27;;;;;;;4.05;2.03;;;16.80;86.10;;;;;;5035704;28;20032;-76
2023/09/14 00:22:55;;;;;;;2.55;1.92;;;16.90;86.20;;;;;;5052178;28;20025;-75
2023/09/14 00:25:22;;;;;;;5.78;2.22;;;16.90;86.20;;;;;;5053079;28;20072;-75
2023/09/14 00:27:48;;;;;;;4.03;1.80;;;16.90;86.40;;;;;;5052230;28;20076;-75
2023/09/14 00:30:14;;;;;;;4.65;2.13;;;16.90;86.30;;;;;;5052144;28;20072;-75
2023/09/14 00:32:40;;;;;;;6.70;2.03;;;17.00;86.50;;;;;;5035470;28;20034;-75
2023/09/14 00:35:10;;;;;;;3.08;1.80;;;16.90;86.60;;;;;;5052974;28;20025;-75
2023/09/14 00:37:36;;;;;;;5.32;1.90;;;16.90;87.10;;;;;;5052034;28;20018;-76
2023/09/14 00:40:06;;;;;;;5.82;2.40;;;16.90;87.40;;;;;;5052993;28;20025;-75
2023/09/14 00:42:38;;;;;;;4.03;1.80;;;16.90;87.60;;;;;;5052949;28;20025;-76
2023/09/14 00:45:06;;;;;;;4.57;2.00;;;17.00;87.80;;;;;;5052979;28;20033;-75
2023/09/14 00:47:32;;;;;;;4.20;1.98;;;17.00;87.80;;;;;;5035810;28;20018;-76
2023/09/14 00:49:58;;;;;;;4.65;2.40;;;17.00;87.80;;;;;;5052021;28;20116;-75
2023/09/14 00:52:24;;;;;;;9.20;1.95;;;17.00;87.90;;;;;;5051885;28;20034;-75
2023/09/14 00:54:50;;;;;;;4.90;1.80;;;16.90;87.90;;;;;;5052888;28;20088;-76
2023/09/14 00:57:17;;;;;;;4.10;2.25;;;16.90;88.10;;;;;;5051847;28;20084;-75
2023/09/14 00:59:44;;;;;;;5.07;2.15;;;16.90;88.10;;;;;;5051839;28;20113;-76
2023/09/14 01:02:10;;;;;;;5.78;2.30;;;16.90;88.10;;;;;;5035510;28;20017;-76
2023/09/14 01:04:37;;;;;;;5.95;2.25;;;16.90;88.20;;;;;;5051766;28;20048;-76
2023/09/14 01:07:03;;;;;;;4.57;1.88;;;16.90;88.10;;;;;;5035407;28;20021;-76
2023/09/14 01:09:29;;;;;;;4.35;1.98;;;16.90;88.40;;;;;;5051718;28;20085;-75
2023/09/14 01:11:55;;;;;;;5.45;2.17;;;16.80;88.20;;;;;;5051860;28;20056;-75
2023/09/14 01:14:29;;;;;;;6.93;2.28;;;16.80;88.50;;;;;;5052670;28;20025;-76
2023/09/14 01:17:23;;;;;;;4.28;1.90;;;16.80;88.60;;;;;;5051770;28;20022;-75
2023/09/14 01:20:21;;;;;;;3.70;2.10;;;16.70;88.40;;;;;;5030130;28;20040;-75
2023/09/14 01:22:54;;;;;;;3.35;2.15;;;16.70;88.50;;;;;;5049489;28;20042;-76
2023/09/14 01:25:34;;;;;;;3.58;1.92;;;16.60;88.60;;;;;;5052350;28;20097;-75
2023/09/14 01:28:11;;;;;;;4.40;2.13;;;16.60;88.70;;;;;;5039610;28;20037;-75
2023/09/14 01:30:37;;;;;;;3.53;2.00;;;16.60;88.80;;;;;;5056261;28;20089;-75
2023/09/14 01:33:05;;;;;;;5.20;2.17;;;16.60;88.80;;;;;;5056134;28;20025;-76
2023/09/14 01:35:35;;;;;;;4.80;1.80;;;16.60;88.70;;;;;;5056027;28;20025;-75
2023/09/14 01:38:01;;;;;;;4.82;1.77;;;16.60;88.70;;;;;;5056177;28;20018;-75
2023/09/14 01:40:27;;;;;;;3.30;1.90;;;16.60;88.60;;;;;;5055056;28;20056;-76
2023/09/14 01:42:54;;;;;;;3.22;1.83;;;16.60;88.60;;;;;;5055049;28;20037;-76
2023/09/14 01:45:20;;;;;;;5.97;1.80;;;16.50;88.60;;;;;;5054988;28;20499;-75
2023/09/14 01:47:46;;;;;;;3.65;1.73;;;16.50;88.70;;;;;;5038363;28;20026;-76
2023/09/14 01:50:12;;;;;;;4.63;1.85;;;16.40;88.70;;;;;;5054961;28;20025;-75
2023/09/14 01:52:38;;;;;;;4.07;1.55;;;16.40;88.80;;;;;;5054854;28;20049;-76
2023/09/14 01:55:04;;;;;;;6.72;2.33;;;16.40;88.60;;;;;;5054916;28;20045;-76
2023/09/14 01:57:30;;;;;;;4.85;2.47;;;16.40;88.20;;;;;;5054807;28;20053;-76
2023/09/14 01:59:56;;;;;;;7.13;1.98;;;16.40;88.00;;;;;;5054794;28;20026;-75
2023/09/14 02:02:24;;;;;;;4.60;2.08;;;16.40;88.00;;;;;;5038159;28;20021;-75
2023/09/14 02:04:49;;;;;;;6.45;2.00;;;16.30;88.20;;;;;;5055612;28;20024;-75
2023/09/14 02:07:15;;;;;;;3.38;1.92;;;16.30;88.30;;;;;;5054514;28;20033;-75
2023/09/14 02:09:41;;;;;;;7.10;1.95;;;16.30;88.20;;;;;;5038063;28;20021;-75
2023/09/14 02:12:06;;;;;;;3.83;1.55;;;16.20;88.30;;;;;;5038001;28;20080;-75
2023/09/14 02:14:32;;;;;;;3.95;2.03;;;16.10;87.70;;;;;;5054319;28;20057;-75
2023/09/14 02:16:57;;;;;;;5.00;2.15;;;16.10;88.00;;;;;;5038010;28;20018;-75
2023/09/14 02:19:23;;;;;;;3.97;2.00;;;16.10;88.00;;;;;;5054383;28;20058;-75
2023/09/14 02:21:50;;;;;;;5.72;1.95;;;16.10;87.80;;;;;;5054342;28;20036;-75
2023/09/14 02:24:15;;;;;;;5.88;1.95;;;16.10;87.80;;;;;;5054074;28;20060;-76
2023/09/14 02:26:41;;;;;;;4.15;1.92;;;16.10;87.80;;;;;;5037577;28;20038;-75
2023/09/14 02:29:06;;;;;;;5.30;2.33;;;16.10;87.70;;;;;;5054111;28;20038;-76
2023/09/14 02:31:32;;;;;;;4.88;2.00;;;16.10;87.50;;;;;;5055077;28;20024;-75
2023/09/14 02:33:58;;;;;;;5.65;2.60;;;16.00;87.50;;;;;;5037343;28;20036;-75
2023/09/14 02:36:25;;;;;;;4.72;1.80;;;16.00;87.40;;;;;;5054026;28;20052;-75
2023/09/14 02:38:50;;;;;;;4.30;2.05;;;16.00;87.40;;;;;;5053151;28;20024;-76
2023/09/14 02:41:17;;;;;;;6.07;2.28;;;16.00;87.20;;;;;;5037372;28;20029;-75
2023/09/14 02:43:43;;;;;;;5.93;2.03;;;15.90;87.10;;;;;;5053889;28;20051;-75
2023/09/14 02:46:09;;;;;;;4.38;1.98;;;15.90;87.00;;;;;;5037276;28;20033;-75
2023/09/14 02:48:34;;;;;;;6.50;2.20;;;15.90;86.90;;;;;;5053817;28;20051;-75
2023/09/14 02:51:00;;;;;;;3.75;1.83;;;15.80;86.90;;;;;;5053760;28;20045;-75
2023/09/14 02:53:26;;;;;;;3.55;1.80;;;15.70;87.10;;;;;;5037174;28;20029;-75
2023/09/14 02:55:52;;;;;;;4.57;2.00;;;15.70;87.10;;;;;;5053825;28;20018;-75
2023/09/14 02:58:17;;;;;;;4.30;2.00;;;15.70;87.00;;;;;;5053680;28;20033;-76
2023/09/14 03:00:43;;;;;;;3.78;1.77;;;15.60;87.20;;;;;;5053685;28;20085;-75
2023/09/14 03:03:11;;;;;;;3.17;1.77;;;15.60;87.20;;;;;;5054436;28;20041;-75
2023/09/14 03:05:37;;;;;;;3.53;1.77;;;15.70;87.10;;;;;;5037295;28;20030;-75
2023/09/14 03:08:03;;;;;;;3.30;1.85;;;15.60;87.10;;;;;;5053378;28;20056;-75
2023/09/14 03:10:28;;;;;;;6.40;1.40;;;15.60;87.00;;;;;;5054304;28;20045;-75
2023/09/14 03:12:54;;;;;;;5.45;2.00;;;15.60;86.90;;;;;;5053182;28;20041;-76
2023/09/14 03:15:20;;;;;;;3.65;1.80;;;15.60;86.80;;;;;;5054217;28;20056;-75
2023/09/14 03:17:45;;;;;;;4.47;1.90;;;15.50;87.30;;;;;;5036659;28;20026;-75
2023/09/14 03:20:11;;;;;;;3.67;2.10;;;15.40;87.40;;;;;;5053166;28;20032;-76
2023/09/14 03:22:37;;;;;;;5.00;1.63;;;15.30;87.70;;;;;;5053094;28;20033;-75
2023/09/14 03:25:02;;;;;;;3.40;1.85;;;15.30;87.90;;;;;;5052894;28;20056;-75
2023/09/14 03:27:28;;;;;;;4.93;2.05;;;15.40;87.80;;;;;;5036567;28;20026;-75
2023/09/14 03:29:54;;;;;;;2.90;1.88;;;15.40;87.80;;;;;;5053024;28;20022;-75
2023/09/14 03:32:19;;;;;;;3.80;2.15;;;15.40;87.90;;;;;;5036356;28;20029;-75
2023/09/14 03:34:45;;;;;;;4.78;2.03;;;15.40;88.80;;;;;;5036345;28;20093;-75
2023/09/14 03:37:11;;;;;;;4.35;2.20;;;15.40;88.00;;;;;;5036361;28;20036;-75
2023/09/14 03:39:36;;;;;;;3.65;1.80;;;15.40;88.00;;;;;;5052758;28;20021;-75
2023/09/14 03:42:02;;;;;;;4.38;2.00;;;15.30;87.90;;;;;;5036302;28;20033;-76
2023/09/14 03:44:28;;;;;;;4.18;2.10;;;15.30;87.90;;;;;;5053715;28;20025;-76
2023/09/14 03:46:53;;;;;;;4.28;1.85;;;15.30;87.80;;;;;;5053668;28;20048;-76
2023/09/14 03:49:19;;;;;;;3.67;1.63;;;15.30;87.70;;;;;;5052666;28;20033;-76
2023/09/14 03:51:45;;;;;;;3.92;1.85;;;15.30;87.60;;;;;;5036131;28;20100;-75
2023/09/14 03:54:11;;;;;;;5.07;1.90;;;15.30;87.60;;;;;;5052497;28;20109;-75
2023/09/14 03:56:37;;;;;;;3.83;1.98;;;15.20;87.70;;;;;;5036119;28;20030;-75
2023/09/14 03:59:03;;;;;;;8.90;2.30;;;15.20;87.90;;;;;;5036032;28;20398;-75
2023/09/14 04:01:29;;;;;;;6.28;2.15;;;15.20;88.00;;;;;;5052515;28;20030;-75
2023/09/14 04:03:55;;;;;;;4.55;1.83;;;15.20;88.10;;;;;;5053496;28;20036;-75
2023/09/14 04:06:21;;;;;;;4.07;1.83;;;15.20;88.10;;;;;;5052467;28;20030;-75
2023/09/14 04:08:46;;;;;;;5.90;1.90;;;15.20;88.20;;;;;;5052488;28;20040;-75
2023/09/14 04:11:12;;;;;;;5.90;2.25;;;15.10;88.10;;;;;;5053333;28;20032;-75
2023/09/14 04:13:38;;;;;;;4.15;2.25;;;15.10;88.20;;;;;;5053152;28;20056;-75
2023/09/14 04:16:05;;;;;;;6.90;2.08;;;15.00;88.30;;;;;;5053310;28;20013;-75
2023/09/14 04:18:36;;;;;;;8.57;2.20;;;15.00;88.30;;;;;;5052322;28;20032;-75
2023/09/14 04:21:03;;;;;;;4.00;2.00;;;15.00;88.40;;;;;;5052231;28;20049;-76
2023/09/14 04:23:29;;;;;;;6.35;1.73;;;15.00;88.40;;;;;;5052146;28;20045;-75
2023/09/14 04:25:54;;;;;;;4.28;1.80;;;15.00;88.40;;;;;;5053023;28;20054;-75
2023/09/14 04:28:21;;;;;;;4.18;2.67;;;15.00;88.40;;;;;;5052107;28;20033;-75
2023/09/14 04:30:51;;;;;;;3.75;1.77;;;15.10;88.30;;;;;;5052320;28;20030;-76
2023/09/14 04:33:17;;;;;;;7.82;2.30;;;15.10;88.30;;;;;;5052200;28;20033;-76
2023/09/14 04:35:44;;;;;;;4.00;1.67;;;15.10;88.40;;;;;;5053210;28;20026;-75
2023/09/14 04:38:09;;;;;;;4.60;2.08;;;15.10;88.30;;;;;;5052181;28;20029;-76
2023/09/14 04:40:43;;;;;;;6.15;1.92;;;15.10;88.20;;;;;;5053082;28;20021;-75
2023/09/14 04:43:12;;;;;;;5.53;1.85;;;15.00;88.30;;;;;;5035583;28;20044;-75
2023/09/14 04:45:37;;;;;;;4.35;2.05;;;15.10;88.60;;;;;;5035518;28;20030;-75
2023/09/14 04:48:03;;;;;;;5.85;1.83;;;15.00;88.60;;;;;;5035530;28;20052;-76
2023/09/14 04:50:29;;;;;;;3.92;1.98;;;15.00;88.70;;;;;;5052066;28;20093;-76
2023/09/14 04:52:56;;;;;;;3.47;1.60;;;15.00;88.70;;;;;;5035406;28;20384;-76
2023/09/14 04:55:22;;;;;;;6.78;1.75;;;15.00;88.70;;;;;;5051894;28;20025;-75
2023/09/14 04:57:48;;;;;;;3.92;1.90;;;15.00;88.80;;;;;;5052886;28;20050;-75
2023/09/14 05:00:14;;;;;;;3.60;1.90;;;15.00;88.90;;;;;;5035300;28;20039;-74
2023/09/14 05:02:40;;;;;;;6.10;1.80;;;15.00;88.70;;;;;;5038317;28;20097;-75
2023/09/14 05:05:08;;;;;;;4.35;1.60;;;15.00;88.50;;;;;;5056764;28;20029;-75
2023/09/14 05:07:34;;;;;;;3.05;1.33;;;15.00;88.60;;;;;;5055717;28;20029;-76
2023/09/14 05:09:59;;;;;;;3.22;1.20;;;15.00;89.60;;;;;;5055728;28;20032;-75
2023/09/14 05:12:25;;;;;;;0.80;0.65;;;14.90;88.60;;;;;;5055584;28;20059;-76
2023/09/14 05:14:51;;;;;;;1.70;0.80;;;14.90;88.90;;;;;;5055641;28;20036;-76
2023/09/14 05:17:16;;;;;;;2.78;0.80;;;14.90;89.30;;;;;;5056642;28;20025;-76
2023/09/14 05:19:42;;;;;;;1.40;0.82;;;14.80;89.30;;;;;;5056503;28;20040;-75
2023/09/14 05:22:09;;;;;;;1.30;0.98;;;14.80;89.70;;;;;;5055412;28;20046;-75
2023/09/14 05:24:35;;;;;;;3.15;1.40;;;14.80;89.90;;;;;;5055067;28;20164;-76
2023/09/14 05:27:00;;;;;;;1.60;1.00;;;14.80;89.90;;;;;;5055487;28;20025;-75
2023/09/14 05:29:26;;;;;;;2.30;1.00;;;14.80;89.70;;;;;;5055404;28;20024;-76
2023/09/14 05:31:52;;;;;;;2.03;1.00;;;14.80;90.20;;;;;;5056208;28;20026;-76
2023/09/14 05:34:18;;;;;;;1.88;0.95;;;14.80;89.90;;;;;;5038654;28;20124;-76
2023/09/14 05:36:44;;;;;;;4.03;1.70;;;14.70;90.00;;;;;;5055188;28;20026;-76
2023/09/14 05:39:09;;;;;;;3.17;1.30;;;14.70;90.00;;;;;;5056087;28;20057;-76
2023/09/14 05:41:35;;;;;;;2.63;1.23;;;14.70;90.10;;;;;;5055238;28;20033;-76
2023/09/14 05:44:03;;;;;;;4.38;1.60;;;14.80;90.10;;;;;;5038396;28;20049;-77
2023/09/14 05:46:29;;;;;;;1.70;0.93;;;14.80;90.00;;;;;;5055091;28;20033;-76
2023/09/14 05:48:55;;;;;;;2.45;1.10;;;14.80;90.00;;;;;;5055039;28;20026;-77
2023/09/14 05:51:20;;;;;;;2.50;1.30;;;14.70;90.20;;;;;;5054850;28;20033;-76
2023/09/14 05:53:46;;;;;;;2.53;1.27;;;14.70;90.30;;;;;;5038358;28;20032;-75
2023/09/14 05:56:12;;;;;;;2.47;1.00;;;14.80;90.30;;;;;;5038283;28;20029;-76
2023/09/14 05:58:37;;;;;;;4.13;1.15;;;14.80;90.30;;;;;;5055744;28;20473;-76
2023/09/14 06:01:04;;;;;;;5.32;1.33;;;14.80;90.20;;;;;;5054885;28;20033;-76
2023/09/14 06:03:30;;;;;;;5.13;1.77;;;14.80;90.20;;;;;;5054549;28;20096;-76
2023/09/14 06:05:56;;;;;;;5.53;1.75;;;14.80;90.30;;;;;;5038211;28;20034;-76
2023/09/14 06:08:21;;;;;;;3.78;1.73;;;14.80;90.50;;;;;;5055720;28;20030;-75
2023/09/14 06:10:47;;;;;;;3.70;1.98;;;14.80;90.60;;;;;;5054669;28;20022;-76
2023/09/14 06:13:12;;;;;;;3.63;1.85;;;14.80;90.60;;;;;;5053381;28;20442;-76
2023/09/14 06:15:38;;;;;;;5.43;2.00;;;14.70;90.70;;;;;;5055572;28;20034;-75
2023/09/14 06:18:04;;;;;;;5.00;2.92;;;14.80;90.90;;;;;;5055506;28;20089;-76
2023/09/14 06:20:30;;;;;;;4.50;2.10;;;14.80;91.00;;;;;;5054361;28;20041;-75
2023/09/14 06:22:55;;;;;;;8.20;2.40;;;14.90;91.10;;;;;;5054258;28;20036;-76
2023/09/14 06:25:22;;;;;;;7.93;2.33;;;14.90;91.10;;;;;;5054280;28;20488;-76
2023/09/14 06:27:48;;;;;;;7.20;2.45;;;14.90;91.20;;;;;;5037809;28;20022;-76
2023/09/14 06:30:13;;;;;;;6.65;2.70;;;14.90;91.30;;;;;;5055129;28;20021;-76
2023/09/14 06:32:39;;;;;;;7.10;2.90;;;15.00;91.30;;;;;;5055251;28;20093;-76
2023/09/14 06:35:06;;;;;;;8.45;3.55;;;15.10;91.30;;;;;;5037481;28;20056;-75
2023/09/14 06:37:32;;;;;;;9.07;4.07;;;15.10;91.30;;;;;;5037784;28;20052;-76
2023/09/14 06:39:57;;;;;;;6.90;3.85;;;15.20;91.40;;;;;;5054950;28;20030;-76
2023/09/14 06:42:23;;;;;;;8.85;4.32;;;15.20;91.50;;;;;;5037418;28;20034;-76
2023/09/14 06:44:48;;;;;;;12.10;5.00;;;15.20;91.70;;;;;;5054861;28;20041;-76
2023/09/14 06:47:14;;;;;;;8.90;5.03;;;15.30;91.90;;;;;;5054012;28;20033;-76
2023/09/14 06:49:41;;;;;;;10.75;5.18;;;15.30;92.20;;;;;;5054866;28;20045;-76
2023/09/14 06:52:08;;;;;;;15.75;5.55;;;15.30;92.30;;;;;;5054890;28;20029;-76
2023/09/14 06:54:33;;;;;;;10.63;5.32;;;15.20;92.30;;;;;;5037253;28;20029;-76
2023/09/14 06:56:59;;;;;;;10.13;5.53;;;15.20;92.50;;;;;;5053715;28;20037;-76
2023/09/14 06:59:24;;;;;;;10.23;4.93;;;15.20;92.50;;;;;;5054593;28;20030;-76
2023/09/14 07:01:50;;;;;;;8.95;4.65;;;15.30;92.50;;;;;;5037077;28;20028;-76
2023/09/14 07:04:16;;;;;;;11.98;5.22;;;15.40;92.50;;;;;;5053433;28;20048;-76
2023/09/14 07:06:42;;;;;;;9.52;5.00;;;15.50;92.40;;;;;;5053659;28;20104;-76
2023/09/14 07:09:07;;;;;;;9.00;5.43;;;15.60;92.50;;;;;;5053493;28;20085;-76
2023/09/14 07:11:34;;;;;;;11.77;5.43;;;15.50;92.70;;;;;;5036915;28;20017;-76
2023/09/14 07:14:00;;;;;;;10.30;5.68;;;15.50;92.80;;;;;;5054346;28;20029;-76
2023/09/14 07:16:26;;;;;;;13.00;5.80;;;15.60;93.00;;;;;;5054319;28;20151;-76
2023/09/14 07:18:52;;;;;;;10.57;5.78;;;15.60;93.10;;;;;;5054185;28;20025;-76
2023/09/14 07:21:17;;;;;;;9.88;5.40;;;15.60;93.10;;;;;;5053151;28;20539;-76
2023/09/14 07:23:43;;;;;;;21.15;5.93;;;15.70;93.10;;;;;;5052898;28;20097;-76
2023/09/14 07:26:09;;;;;;;9.77;5.10;;;15.80;93.10;;;;;;5036121;28;20065;-76
2023/09/14 07:28:35;;;;;;;12.32;5.07;;;15.90;93.20;;;;;;5053138;28;20040;-76
2023/09/14 07:31:05;;;;;;;10.90;4.82;;;15.90;93.20;;;;;;5053072;28;20097;-76
2023/09/14 07:33:31;;;;;;;12.05;5.07;;;16.00;93.40;;;;;;5053884;28;20018;-76
2023/09/14 07:35:57;;;;;;;11.43;4.45;;;16.00;93.50;;;;;;5053949;28;20033;-76
2023/09/14 07:38:23;;;;;;;9.40;4.90;;;16.00;93.30;;;;;;5052877;28;20412;-76
2023/09/14 07:40:49;;;;;;;8.00;4.32;;;16.10;93.20;;;;;;5036353;28;20064;-76
2023/09/14 07:43:14;;;;;;;11.30;4.30;;;16.20;93.40;;;;;;5053709;28;20025;-76
2023/09/14 07:45:40;;;;;;;8.77;3.97;;;16.30;93.30;;;;;;5053877;28;20017;-76
2023/09/14 07:48:07;;;;;;;13.32;4.75;;;16.30;93.20;;;;;;5052669;28;20021;-76
2023/09/14 07:50:42;;;;;;;7.53;4.10;;;16.30;93.20;;;;;;5052658;28;20114;-76
2023/09/14 07:53:08;;;;;;;13.02;4.45;;;16.40;93.50;;;;;;5052797;28;20035;-75
2023/09/14 07:55:35;;;;;;;7.38;4.10;;;16.40;93.20;;;;;;5036140;28;20034;-76
2023/09/14 07:58:00;;;;;;;7.93;4.28;;;16.40;93.20;;;;;;5036068;28;20029;-76
2023/09/14 08:00:26;;;;;;;11.57;4.68;;;16.50;93.20;;;;;;5052483;28;20056;-76
2023/09/14 08:02:52;;;;;;;9.43;4.43;;;16.60;93.40;;;;;;5035917;28;20033;-76
2023/09/14 08:05:18;;;;;;;10.40;4.13;;;16.60;93.20;;;;;;5052608;28;20028;-76
2023/09/14 08:07:45;;;;;;;10.85;4.10;;;16.70;93.50;;;;;;5052489;28;20021;-76
2023/09/14 08:10:11;;;;;;;10.13;4.30;;;16.80;93.40;;;;;;5052520;28;20037;-76
2023/09/14 08:12:36;;;;;;;9.52;4.20;;;16.90;93.30;;;;;;5053339;28;20048;-76
2023/09/14 08:15:03;;;;;;;8.10;4.00;;;16.90;93.00;;;;;;5053299;28;20033;-76
2023/09/14 08:17:29;;;;;;;12.15;4.47;;;16.90;93.00;;;;;;5052411;28;20093;-76
2023/09/14 08:19:55;;;;;;;10.68;4.20;;;17.00;93.40;;;;;;5035964;28;20026;-76
2023/09/14 08:22:23;;;;;;;8.32;4.43;;;17.10;93.30;;;;;;5035846;28;20014;-76
2023/09/14 08:24:49;;;;;;;8.50;4.50;;;17.10;92.90;;;;;;5053174;28;20030;-76
2023/09/14 08:27:15;;;;;;;9.63;4.30;;;17.10;93.10;;;;;;5052112;28;20054;-76
2023/09/14 08:29:43;;;;;;;12.02;5.28;;;17.20;93.00;;;;;;5035721;28;20453;-76
2023/09/14 08:32:09;;;;;;;9.85;4.63;;;17.20;92.70;;;;;;5052304;28;20084;-76
2023/09/14 08:34:35;;;;;;;12.30;4.93;;;17.20;92.80;;;;;;5052057;28;20032;-77
2023/09/14 08:37:01;;;;;;;9.40;4.70;;;17.30;92.70;;;;;;5055025;28;20029;-76
2023/09/14 08:39:27;;;;;;;9.18;4.40;;;17.40;92.60;;;;;;5039862;28;20029;-76
2023/09/14 08:41:52;;;;;;;11.90;5.65;;;17.50;92.70;;;;;;5057139;28;20029;-76
2023/09/14 08:44:19;;;;;;;8.52;5.38;;;17.60;92.90;;;;;;5056185;28;20053;-76
2023/09/14 08:46:47;;;;;;;10.40;4.90;;;17.70;92.40;;;;;;5056193;28;20022;-76
2023/09/14 08:49:15;;;;;;;9.05;4.70;;;17.80;92.30;;;;;;5056014;28;20021;-76
2023/09/14 08:51:42;;;;;;;9.90;4.97;;;17.80;92.10;;;;;;5055928;28;20017;-77
2023/09/14 08:54:08;;;;;;;13.20;5.55;;;17.90;91.90;;;;;;5039388;28;20097;-76
2023/09/14 08:56:35;;;;;;;11.82;5.38;;;17.90;91.80;;;;;;5056910;28;20037;-76
2023/09/14 08:59:02;;;;;;;11.55;5.57;;;17.90;91.90;;;;;;5056892;28;20017;-76
2023/09/14 09:01:30;;;;;;;11.60;5.93;;;18.00;92.20;;;;;;5055762;28;20025;-76
2023/09/14 09:03:56;;;;;;;9.45;5.55;;;18.10;92.30;;;;;;5056724;28;20037;-76
2023/09/14 09:06:22;;;;;;;9.48;5.13;;;18.10;92.20;;;;;;5039305;28;20021;-76
2023/09/14 09:08:47;;;;;;;12.57;6.13;;;18.10;91.90;;;;;;5055741;28;20026;-76
2023/09/14 09:11:13;;;;;;;12.45;5.85;;;18.20;91.60;;;;;;5055831;28;20021;-76
2023/09/14 09:13:44;;;;;;;11.60;5.63;;;18.20;91.50;;;;;;5055755;28;20561;-76
2023/09/14 09:16:11;;;;;;;14.35;6.28;;;18.30;91.50;;;;;;5056552;28;20033;-76
2023/09/14 09:19:02;;;;;;;14.73;6.50;;;18.40;91.60;;;;;;5056508;28;20030;-76
2023/09/14 09:21:29;;;;;;;12.25;6.22;;;18.50;91.00;;;;;;5039175;28;20022;-76
2023/09/14 09:23:54;;;;;;;12.20;6.00;;;18.50;91.00;;;;;;5056385;28;20048;-76
2023/09/14 09:26:20;;;;;;;12.07;6.22;;;18.60;91.20;;;;;;5056274;28;20068;-76
2023/09/14 09:28:47;;;;;;;13.95;5.95;;;18.60;91.30;;;;;;5056314;28;20040;-76
2023/09/14 09:31:13;;;;;;;16.30;7.03;;;18.60;91.00;;;;;;5055411;28;20025;-76
2023/09/14 09:33:40;;;;;;;14.57;7.30;;;18.70;90.80;;;;;;5055354;28;20056;-76
2023/09/14 09:36:19;;;;;;;17.23;7.55;;;18.70;90.60;;;;;;5056243;28;20048;-76
2023/09/14 09:38:47;;;;;;;15.13;6.55;;;18.80;90.60;;;;;;5038601;28;20025;-76
2023/09/14 09:41:15;;;;;;;14.18;6.82;;;18.80;90.70;;;;;;5056110;28;20029;-76
2023/09/14 09:43:41;;;;;;;14.60;7.07;;;18.90;90.60;;;;;;5055969;28;20056;-75
2023/09/14 09:46:17;;;;;;;13.68;7.25;;;19.10;90.70;;;;;;5056015;28;20030;-76
2023/09/14 09:48:43;;;;;;;18.05;7.50;;;19.10;90.20;;;;;;5038114;28;20026;-76
2023/09/14 09:51:09;;;;;;;12.13;6.60;;;19.20;90.20;;;;;;5055074;28;20026;-76
2023/09/14 09:53:38;;;;;;;14.52;7.97;;;19.30;90.20;;;;;;5054934;28;20052;-76
2023/09/14 09:56:04;;;;;;;16.58;7.70;;;19.30;90.30;;;;;;5054942;28;20451;-76
2023/09/14 09:58:37;;;;;;;17.20;7.45;;;19.40;89.10;;;;;;5054860;28;20037;-76
2023/09/14 10:01:03;;;;;;;16.80;7.47;;;19.50;89.30;;;;;;5055756;28;20026;-76
2023/09/14 10:03:30;;;;;;;13.10;6.75;;;19.60;88.40;;;;;;5055670;28;20052;-76
2023/09/14 10:05:56;;;;;;;15.18;6.93;;;19.70;88.30;;;;;;5055683;28;20025;-76
2023/09/14 10:08:22;;;;;;;14.38;7.13;;;19.80;88.10;;;;;;5054699;28;20060;-76
2023/09/14 10:10:52;;;;;;;18.15;7.47;;;19.90;87.00;;;;;;5055567;28;20472;-76
2023/09/14 10:13:24;;;;;;;13.75;7.38;;;19.90;86.40;;;;;;5055563;28;20049;-77
2023/09/14 10:15:51;;;;;;;;;;;19.90;84.80;;;;;;5054894;28;20033;-76
2023/09/14 10:18:20;;;;;;;13.30;6.38;;;19.80;83.20;;;;;;5054717;28;19909;-76
2023/09/14 10:20:47;;;;;;;13.80;5.95;;;19.70;84.10;;;;;;5054390;28;20026;-76
2023/09/14 10:23:16;;;;;;;11.00;6.15;;;19.80;85.20;;;;;;5055294;28;20147;-76
2023/09/14 10:25:45;;;;;;;11.52;6.38;;;20.00;85.90;;;;;;5055039;28;20105;-76
2023/09/14 10:28:12;;;;;;;14.13;6.93;;;20.10;85.00;;;;;;5070945;28;20029;-76
2023/09/14 10:30:39;;;;;;;11.75;6.10;;;20.20;84.50;;;;;;5054190;28;20025;-76
2023/09/14 10:33:07;;;;;;;10.85;5.25;;;20.40;84.20;;;;;;5055181;28;20030;-76
2023/09/14 10:35:33;;;;;;;12.32;5.95;;;20.50;81.60;;;;;;5054069;28;20025;-76
2023/09/14 10:38:01;;;;;;;10.98;6.30;;;20.40;80.30;;;;;;5054054;28;20032;-76
2023/09/14 10:40:28;;;;;;;12.10;6.15;;;20.40;81.90;;;;;;5037718;28;20091;-76
2023/09/14 10:42:54;;;;;;;9.55;5.50;;;20.40;82.40;;;;;;5053826;28;20025;-76
2023/09/14 10:45:20;;;;;;;10.45;6.22;;;20.40;81.90;;;;;;5053970;28;20022;-76
2023/09/14 10:47:48;;;;;;;11.88;5.45;;;20.30;80.00;;;;;;5054874;28;20029;-76
2023/09/14 10:50:16;;;;;;;9.30;5.20;;;20.10;80.30;;;;;;5053798;28;20017;-77
2023/09/14 10:52:42;;;;;;;8.07;4.68;;;20.00;80.20;;;;;;5053782;28;20017;-76
2023/09/14 10:55:09;;;;;;;7.55;4.57;;;20.10;80.30;;;;;;5053756;28;20106;-76
2023/09/14 10:57:41;;;;;;;8.75;3.97;;;20.20;81.10;;;;;;5054660;28;20546;-76
2023/09/14 11:00:11;;;;;;;7.90;4.00;;;20.20;81.30;;;;;;5053100;28;20063;-76
2023/09/14 11:02:41;;;;;;;6.32;4.07;;;20.30;81.70;;;;;;5037629;28;20041;-76
2023/09/14 11:05:13;;;;;;;8.40;4.70;;;20.40;81.70;;;;;;5054641;28;20029;-76
2023/09/14 11:07:41;;;;;;;9.75;4.57;;;20.40;81.10;;;;;;5054544;28;20029;-76
2023/09/14 11:10:09;;;;;;;7.95;4.70;;;20.50;79.40;;;;;;5054376;28;20017;-76
2023/09/14 11:12:35;;;;;;;10.52;4.57;;;20.50;78.20;;;;;;5037014;28;20025;-76
2023/09/14 11:15:21;;;;;;;10.45;4.78;;;20.70;79.50;;;;;;5053449;28;20124;-76
2023/09/14 11:17:52;;;;;;;8.00;4.60;;;21.00;80.40;;;;;;5054311;28;20022;-76
2023/09/14 11:20:20;;;;;;;11.20;5.70;;;21.00;75.60;;;;;;5054288;28;20077;-76
2023/09/14 11:22:47;;;;;;;8.15;4.78;;;20.90;77.40;;;;;;5054156;28;20030;-76
2023/09/14 11:25:25;;;;;;;9.07;4.80;;;20.90;76.90;;;;;;5052979;28;20026;-77
2023/09/14 11:27:51;;;;;;;7.80;4.43;;;21.10;78.30;;;;;;5054122;28;20032;-76
2023/09/14 11:30:19;;;;;;;8.13;4.53;;;21.20;77.90;;;;;;5054103;28;20029;-76
2023/09/14 11:32:45;;;;;;;9.07;4.35;;;21.30;76.20;;;;;;5053939;28;20029;-76
2023/09/14 11:35:12;;;;;;;5.88;3.95;;;21.40;77.90;;;;;;5036532;28;20056;-76
2023/09/14 11:37:40;;;;;;;10.00;4.88;;;21.40;77.40;;;;;;5052912;28;20053;-76
2023/09/14 11:40:12;;;;;;;7.00;4.30;;;21.40;76.80;;;;;;5052908;28;20029;-76
2023/09/14 11:43:21;;;;;;;6.85;4.32;;;21.40;76.50;;;;;;5052965;28;20036;-76
2023/09/14 11:45:56;;;;;;;8.38;3.85;;;21.30;74.70;;;;;;5053008;28;20120;-76
2023/09/14 11:48:23;;;;;;;6.05;3.97;;;21.00;74.20;;;;;;5052745;28;20029;-76
2023/09/14 11:50:50;;;;;;;9.57;3.80;;;21.00;75.90;;;;;;5053687;28;20036;-76
2023/09/14 11:53:18;;;;;;;9.82;4.55;;;20.90;76.40;;;;;;5053667;28;20036;-76
2023/09/14 11:55:47;;;;;;;7.72;4.30;;;20.90;74.50;;;;;;5053647;28;20104;-76
2023/09/14 11:58:14;;;;;;;8.18;4.20;;;20.90;75.40;;;;;;5053650;28;20073;-76
2023/09/14 12:00:44;;;;;;;7.75;3.65;;;20.80;75.00;;;;;;5052624;28;20172;-76
2023/09/14 12:03:10;;;;;;;5.82;3.90;;;20.80;75.00;;;;;;5052437;28;20027;-76
2023/09/14 12:05:36;;;;;;;9.60;3.80;;;20.90;75.10;;;;;;5052589;28;20017;-76
2023/09/14 12:08:12;;;;;;;7.07;4.18;;;21.00;74.10;;;;;;5053466;28;20036;-76
2023/09/14 12:10:39;;;;;;;7.25;4.28;;;21.00;74.00;;;;;;5052668;28;20042;-76
2023/09/14 12:13:16;;;;;;;8.80;4.50;;;21.00;74.90;;;;;;5052329;28;20101;-76
2023/09/14 12:15:43;;;;;;;8.50;4.18;;;21.00;75.00;;;;;;5035847;28;20477;-77
2023/09/14 12:18:12;;;;;;;11.57;6.72;;;21.00;75.00;;;;;;5052249;28;20049;-76
2023/09/14 12:20:43;;;;;;;6.85;4.38;;;21.00;75.10;;;;;;5053282;28;20029;-75
2023/09/14 12:23:11;;;;;;;6.82;4.13;;;21.10;75.40;;;;;;5053186;28;20025;-75
2023/09/14 12:25:38;;;;;;;7.97;4.28;;;21.20;75.90;;;;;;5052171;28;20061;-76
2023/09/14 12:28:05;;;;;;;8.50;4.00;;;21.30;75.50;;;;;;5052184;28;20021;-76
2023/09/14 12:30:32;;;;;;;8.05;4.15;;;21.50;76.30;;;;;;5052358;28;20034;-76
2023/09/14 12:33:00;;;;;;;7.70;4.93;;;21.70;75.00;;;;;;5035733;28;20033;-77
2023/09/14 12:35:25;;;;;;;6.93;4.15;;;21.50;74.00;;;;;;5052088;28;20097;-77
2023/09/14 12:37:52;;;;;;;8.60;4.40;;;21.40;73.80;;;;;;5053119;28;20089;-77
2023/09/14 12:40:18;;;;;;;8.25;4.40;;;21.20;73.10;;;;;;5052094;28;20472;-77
2023/09/14 12:42:44;;;;;;;6.20;3.90;;;21.10;73.00;;;;;;5035672;28;20036;-76
2023/09/14 12:45:14;;;;;;;8.30;4.80;;;21.00;74.30;;;;;;5035440;28;20097;-76